Terminal Aerodrome Forecast
Issued by NWS

Home | Current Version | Previous Version | Text Only | Print | Product List | Glossary On
Versions: 1 2 3 4 5 6 7 8 9 10 11 12 13 14 15
663
FTUS45 KRIW 162321
TAFRKS
TAF
KRKS 162321Z 1700/1724 27009KT P6SM FEW070 SCT150
     FM170300 24006KT P6SM FEW100 SCT200
     FM171600 26007KT P6SM SCT150
     FM172100 26015G21KT P6SM SCT150=

USA.gov is the U.S. government's official web portal to all federal, state and local government web resources and services.